Time;durP1;ratioP1;P1;durP2;ratioP2;P2;SDS_P1;SDS_P2;PMS_P1;PMS_P2;Temp;Humidity;BMP_temperature;BMP_pressure;BME280_temperature;BME280_humidity;BME280_pressure;Samples;Min_cycle;Max_cycle;Signal;HPM_P1;HPM_P2
2021/11/01 00:01:21;;;;;;;24.90;19.50;;;;;;;10.46;52.03;99631.90;118707;1174;21955;-80
2021/11/01 00:03:49;;;;;;;26.30;20.30;;;;;;;10.43;51.98;99627.60;119178;1165;21891;-79
2021/11/01 00:06:17;;;;;;;32.80;22.70;;;;;;;10.41;52.15;99624.33;119238;1171;22440;-79
2021/11/01 00:08:45;;;;;;;25.20;19.60;;;;;;;10.39;52.21;99628.32;119225;1170;22889;-79
2021/11/01 00:11:13;;;;;;;29.40;20.10;;;;;;;10.36;52.32;99632.27;119276;1169;22648;-79
2021/11/01 00:13:41;;;;;;;24.40;19.30;;;;;;;10.35;52.17;99630.50;119302;1166;22902;-79
2021/11/01 00:16:10;;;;;;;24.00;19.10;;;;;;;10.32;52.25;99626.94;118947;1172;21886;-79
2021/11/01 00:18:39;;;;;;;23.90;18.70;;;;;;;10.30;52.44;99623.70;119028;1173;21872;-79
2021/11/01 00:21:09;;;;;;;27.20;20.20;;;;;;;10.27;52.51;99627.04;118981;1171;21872;-79
2021/11/01 00:23:38;;;;;;;26.20;19.30;;;;;;;10.25;52.51;99620.38;119164;1174;23510;-79
2021/11/01 00:26:06;;;;;;;24.80;18.30;;;;;;;10.23;52.58;99619.12;119205;1174;22589;-79
2021/11/01 00:28:49;;;;;;;24.40;19.50;;;;;;;10.20;52.67;99615.58;119029;1174;23399;-79
2021/11/01 00:31:17;;;;;;;23.90;18.70;;;;;;;10.19;52.82;99606.92;118460;1174;21912;-80
2021/11/01 00:33:45;;;;;;;22.20;17.50;;;;;;;10.16;52.71;99609.66;118455;1175;23435;-78
2021/11/01 00:36:13;;;;;;;25.50;19.40;;;;;;;10.14;52.80;99608.05;117987;1178;21859;-78
2021/11/01 00:38:42;;;;;;;23.30;18.70;;;;;;;10.11;52.86;99608.77;118356;1177;21856;-78
2021/11/01 00:41:10;;;;;;;25.50;19.10;;;;;;;10.12;52.99;99609.46;118287;1177;22618;-79
2021/11/01 00:43:40;;;;;;;28.90;21.50;;;;;;;10.11;52.98;99605.59;118283;1178;22843;-79
2021/11/01 00:46:11;;;;;;;28.90;21.70;;;;;;;10.09;53.01;99604.15;117960;1177;22943;-79
2021/11/01 00:48:39;;;;;;;28.60;21.10;;;;;;;10.06;53.09;99600.43;117996;1178;22906;-79
2021/11/01 00:51:07;;;;;;;28.90;21.60;;;;;;;10.03;53.08;99600.27;118492;1178;23454;-78
2021/11/01 00:53:37;;;;;;;25.30;20.00;;;;;;;10.00;53.19;99600.73;118131;1177;21875;-78
2021/11/01 00:56:04;;;;;;;28.70;19.10;;;;;;;9.97;53.27;99594.90;118518;1176;21881;-79
2021/11/01 00:58:39;;;;;;;24.70;19.90;;;;;;;9.93;53.38;99590.45;118146;1179;22821;-79
2021/11/01 01:01:09;;;;;;;25.10;18.70;;;;;;;9.89;53.58;99589.66;118030;1181;22492;-79
2021/11/01 01:03:37;;;;;;;23.80;18.40;;;;;;;9.85;53.74;99587.70;117998;1179;22851;-79
2021/11/01 01:06:06;;;;;;;26.10;19.00;;;;;;;9.83;53.88;99586.66;118359;1179;21895;-80
2021/11/01 01:08:42;;;;;;;27.80;19.10;;;;;;;9.84;53.90;99582.36;118270;1179;22762;-80
2021/11/01 01:11:10;;;;;;;23.70;17.30;;;;;;;9.84;53.86;99578.15;118303;1179;21889;-80
2021/11/01 01:13:41;;;;;;;25.50;18.80;;;;;;;9.82;53.93;99578.00;118160;1180;21862;-81
2021/11/01 01:16:24;;;;;;;25.50;19.10;;;;;;;9.79;53.97;99574.19;118437;1176;21878;-80
2021/11/01 01:18:57;;;;;;;25.40;19.60;;;;;;;9.76;54.05;99567.16;118758;1174;24196;-81
2021/11/01 01:24:17;;;;;;;28.50;19.30;;;;;;;9.70;54.36;99554.34;118546;1178;21873;-80
2021/11/01 01:27:04;;;;;;;22.30;19.70;;;;;;;9.67;54.46;99551.34;118589;1178;21894;-80
2021/11/01 01:29:37;;;;;;;22.30;19.00;;;;;;;9.64;54.38;99548.63;118576;1177;24108;-80
2021/11/01 01:32:06;;;;;;;26.50;20.20;;;;;;;9.63;54.45;99544.07;118304;1181;24272;-79
2021/11/01 01:34:34;;;;;;;25.70;20.00;;;;;;;9.62;54.50;99537.80;118283;1179;22909;-81
2021/11/01 01:37:03;;;;;;;25.00;18.40;;;;;;;9.61;54.57;99533.24;118138;1180;23459;-80
2021/11/01 01:39:33;;;;;;;25.20;19.30;;;;;;;9.58;54.60;99530.60;118509;1177;21861;-81
2021/11/01 01:42:00;;;;;;;25.30;19.80;;;;;;;9.54;54.79;99525.60;118694;1175;23442;-80
2021/11/01 01:44:29;;;;;;;24.20;19.00;;;;;;;9.52;54.91;99520.54;119088;1173;23500;-79
2021/11/01 01:46:56;;;;;;;25.40;19.80;;;;;;;9.50;54.99;99516.59;118967;1174;22535;-80
2021/11/01 01:49:25;;;;;;;25.10;18.20;;;;;;;9.49;55.04;99515.88;119102;1174;21888;-79
2021/11/01 01:51:52;;;;;;;25.00;19.50;;;;;;;9.48;55.06;99512.48;119047;1173;22804;-79
2021/11/01 01:54:21;;;;;;;25.80;19.70;;;;;;;9.46;55.10;99510.15;119091;1174;24123;-79
2021/11/01 01:56:49;;;;;;;20.40;16.60;;;;;;;9.47;55.14;99509.27;118995;1171;21912;-79
2021/11/01 01:59:18;;;;;;;22.30;18.70;;;;;;;9.48;55.22;99505.77;119189;1170;22271;-79
2021/11/01 02:01:48;;;;;;;22.80;17.80;;;;;;;9.48;55.10;99501.71;119468;1170;21890;-79
2021/11/01 02:04:22;;;;;;;27.20;21.10;;;;;;;9.48;55.00;99498.54;119576;1170;22823;-80
2021/11/01 02:07:12;;;;;;;19.80;17.30;;;;;;;9.48;54.97;99489.59;119577;1170;22285;-80
2021/11/01 02:09:56;;;;;;;22.40;18.20;;;;;;;9.47;55.10;99486.92;119318;1170;21898;-79
2021/11/01 02:12:43;;;;;;;23.20;17.90;;;;;;;9.45;55.13;99480.98;119533;1168;21931;-79
2021/11/01 02:15:31;;;;;;;22.50;19.30;;;;;;;9.42;55.09;99477.25;119301;1170;22068;-79
2021/11/01 02:18:02;;;;;;;23.20;17.90;;;;;;;9.40;55.25;99472.27;119546;1170;23415;-80
2021/11/01 02:20:36;;;;;;;24.00;19.40;;;;;;;9.39;55.26;99469.38;119470;1170;21889;-79
2021/11/01 02:23:25;;;;;;;23.70;18.40;;;;;;;9.38;55.34;99464.88;119279;1170;21874;-79
2021/11/01 02:25:57;;;;;;;23.80;19.00;;;;;;;9.35;55.37;99453.27;119206;1170;21852;-80
2021/11/01 02:28:33;;;;;;;26.80;19.90;;;;;;;9.35;55.42;99449.69;119197;1171;23423;-79
2021/11/01 02:31:05;;;;;;;30.50;20.50;;;;;;;9.35;55.36;99452.91;119206;1170;21993;-79
2021/11/01 02:33:36;;;;;;;28.00;20.80;;;;;;;9.36;55.36;99453.36;119306;1171;21859;-78
2021/11/01 02:36:10;;;;;;;25.60;20.40;;;;;;;9.37;55.42;99452.77;119260;1171;23436;-78
2021/11/01 02:38:49;;;;;;;24.90;18.30;;;;;;;9.37;55.35;99445.11;119104;1171;21906;-78
2021/11/01 02:41:31;;;;;;;27.50;19.90;;;;;;;9.37;55.44;99449.02;118994;1171;23458;-78
2021/11/01 02:44:08;;;;;;;24.40;19.20;;;;;;;9.38;55.50;99438.90;118815;1174;23677;-80
2021/11/01 02:46:39;;;;;;;26.20;20.10;;;;;;;9.39;55.45;99441.48;119004;1173;23528;-78
2021/11/01 02:49:07;;;;;;;27.60;19.40;;;;;;;9.39;55.45;99446.27;118546;1175;23582;-80
2021/11/01 02:51:36;;;;;;;21.30;18.70;;;;;;;9.40;55.46;99443.80;118734;1175;24189;-80
2021/11/01 02:54:04;;;;;;;23.70;17.80;;;;;;;9.40;55.35;99439.34;118588;1175;21866;-79
2021/11/01 02:56:35;;;;;;;25.90;16.80;;;;;;;9.41;55.36;99442.11;118606;1175;21871;-80
2021/11/01 02:59:04;;;;;;;20.40;17.70;;;;;;;9.40;55.27;99442.94;119011;1173;21876;-80
2021/11/01 03:01:32;;;;;;;23.10;17.60;;;;;;;9.37;55.25;99444.63;118798;1172;21853;-80
2021/11/01 03:04:01;;;;;;;25.60;18.60;;;;;;;9.37;55.37;99442.34;118780;1171;22141;-80
2021/11/01 03:06:32;;;;;;;24.30;18.40;;;;;;;9.38;55.33;99444.64;118663;1174;21906;-80
2021/11/01 03:09:01;;;;;;;25.00;19.80;;;;;;;9.38;55.28;99443.45;118705;1174;22932;-80
2021/11/01 03:11:31;;;;;;;23.20;18.20;;;;;;;9.35;55.35;99438.15;118625;1176;23416;-80
2021/11/01 03:14:00;;;;;;;25.20;19.90;;;;;;;9.31;55.45;99436.25;118695;1176;21907;-80
2021/11/01 03:16:30;;;;;;;26.50;20.10;;;;;;;9.29;55.56;99432.30;118509;1176;24217;-79
2021/11/01 03:19:11;;;;;;;24.20;17.70;;;;;;;9.27;55.60;99428.98;118504;1176;22832;-79
2021/11/01 03:21:42;;;;;;;25.60;19.10;;;;;;;9.24;55.69;99425.95;118417;1174;21875;-79
2021/11/01 03:24:15;;;;;;;25.00;19.10;;;;;;;9.23;55.81;99425.48;119074;1170;21861;-79
2021/11/01 03:26:47;;;;;;;22.80;17.60;;;;;;;9.21;55.81;99424.20;118758;1174;23678;-80
2021/11/01 03:29:16;;;;;;;21.90;17.40;;;;;;;9.19;55.95;99424.95;118589;1177;22896;-80
2021/11/01 03:31:46;;;;;;;24.60;18.40;;;;;;;9.17;56.12;99424.55;118393;1178;21971;-79
2021/11/01 03:34:15;;;;;;;20.30;17.30;;;;;;;9.17;56.33;99428.75;118624;1174;21908;-80
2021/11/01 03:36:45;;;;;;;19.80;16.60;;;;;;;9.19;56.49;99420.80;118837;1175;22878;-81
2021/11/01 03:39:15;;;;;;;23.50;17.20;;;;;;;9.23;56.57;99419.41;118444;1177;21890;-80
2021/11/01 03:41:44;;;;;;;25.40;19.30;;;;;;;9.25;56.49;99416.10;118485;1176;23448;-80
2021/11/01 03:44:21;;;;;;;22.50;17.30;;;;;;;9.25;56.52;99420.08;118530;1178;23047;-80
2021/11/01 03:46:54;;;;;;;21.60;18.80;;;;;;;9.26;56.53;99423.34;118535;1174;21879;-81
2021/11/01 03:49:28;;;;;;;27.50;19.40;;;;;;;9.24;56.40;99416.66;118541;1174;22894;-81
2021/11/01 03:54:34;;;;;;;30.80;23.40;;;;;;;9.20;56.63;99412.92;118322;1174;21848;-79
2021/11/01 03:57:04;;;;;;;31.70;25.00;;;;;;;9.19;56.62;99417.94;118255;1178;21903;-80
2021/11/01 03:59:33;;;;;;;26.50;22.90;;;;;;;9.17;56.70;99412.63;118366;1175;21854;-80
2021/11/01 04:02:02;;;;;;;28.30;23.20;;;;;;;9.15;56.84;99408.63;118493;1177;21866;-80
2021/11/01 04:04:32;;;;;;;25.40;21.00;;;;;;;9.12;56.89;99403.13;118487;1177;21855;-79
2021/11/01 04:07:00;;;;;;;23.90;20.20;;;;;;;9.12;57.08;99399.84;118489;1177;23687;-80
2021/11/01 04:09:28;;;;;;;23.40;17.60;;;;;;;9.13;57.20;99399.16;118751;1177;21870;-80
2021/11/01 04:11:56;;;;;;;22.50;16.60;;;;;;;9.15;57.25;99397.16;118724;1174;23564;-80
2021/11/01 04:14:27;;;;;;;18.00;14.60;;;;;;;9.18;57.33;99399.15;119105;1172;21871;-80
2021/11/01 04:17:00;;;;;;;17.20;14.50;;;;;;;9.20;57.52;99396.91;118963;1174;21921;-81
2021/11/01 04:19:34;;;;;;;20.70;16.10;;;;;;;9.24;57.61;99393.46;118625;1177;22636;-81
2021/11/01 04:22:04;;;;;;;15.60;13.60;;;;;;;9.28;57.57;99387.42;118401;1174;22585;-80
2021/11/01 04:24:34;;;;;;;18.40;14.60;;;;;;;9.31;57.64;99384.20;118543;1177;22641;-81
2021/11/01 04:27:02;;;;;;;16.20;13.80;;;;;;;9.36;57.70;99381.30;117921;1182;21881;-82
2021/11/01 04:29:33;;;;;;;16.70;13.80;;;;;;;9.38;57.77;99375.20;117812;1184;21889;-81
2021/11/01 04:32:13;;;;;;;16.30;13.30;;;;;;;9.44;57.78;99370.39;117730;1184;21878;-81
2021/11/01 04:34:46;;;;;;;14.70;11.90;;;;;;;9.50;57.91;99363.74;117802;1184;21881;-80
2021/11/01 04:37:15;;;;;;;14.50;12.20;;;;;;;9.57;57.98;99364.48;117432;1182;21884;-79
2021/11/01 04:53:16;;;;;;;15.40;11.70;;;;;;;10.05;57.16;99358.34;118729;1174;22341;-79
2021/11/01 04:55:45;;;;;;;14.80;11.60;;;;;;;10.11;57.00;99352.30;118937;1175;21911;-80
2021/11/01 04:58:13;;;;;;;13.20;11.80;;;;;;;10.18;56.67;99348.85;119151;1172;21879;-80
2021/11/01 05:00:44;;;;;;;14.40;11.80;;;;;;;10.22;56.33;99344.96;118429;1175;21889;-80
2021/11/01 05:05:50;;;;;;;14.40;11.60;;;;;;;10.26;56.29;99342.25;118436;1176;23424;-80
2021/11/01 05:08:22;;;;;;;14.90;11.90;;;;;;;10.29;56.23;99340.63;118854;1173;21879;-81
2021/11/01 05:10:55;;;;;;;13.10;11.20;;;;;;;10.32;56.10;99343.30;118770;1176;21862;-81
2021/11/01 05:13:28;;;;;;;13.70;11.10;;;;;;;10.33;56.01;99339.04;119001;1176;23414;-80
2021/11/01 05:19:19;;;;;;;13.10;11.60;;;;;;;10.35;55.94;99336.05;118637;1178;21892;-81
2021/11/01 05:22:19;;;;;;;19.50;12.00;;;;;;;10.34;55.88;99338.27;118447;1179;23422;-81
2021/11/01 05:24:40;;;;;;;13.30;11.90;;;;;;;10.37;55.86;99341.13;117967;1178;21885;-80
2021/11/01 05:29:40;;;;;;;16.40;13.20;;;;;;;10.38;55.79;99340.13;118298;1179;21851;-81
2021/11/01 05:32:13;;;;;;;13.70;12.30;;;;;;;10.37;55.71;99333.43;117919;1182;21853;-81
2021/11/01 05:34:41;;;;;;;15.10;11.70;;;;;;;10.37;55.57;99328.95;118204;1182;21883;-81
2021/11/01 05:37:12;;;;;;;15.20;13.60;;;;;;;10.36;55.53;99324.80;118040;1182;23526;-81
2021/11/01 05:39:43;;;;;;;14.30;12.80;;;;;;;10.36;55.65;99327.48;117966;1180;23447;-81
2021/11/01 05:42:24;;;;;;;16.10;12.50;;;;;;;10.34;55.51;99331.81;118416;1177;22345;-78
2021/11/01 05:44:52;;;;;;;17.60;12.60;;;;;;;10.33;55.63;99336.30;117746;1180;22991;-78
2021/11/01 05:47:22;;;;;;;16.30;12.80;;;;;;;10.31;55.77;99329.43;117590;1183;21906;-79
2021/11/01 05:49:51;;;;;;;19.50;13.30;;;;;;;10.30;55.81;99329.80;118014;1177;21864;-79
2021/11/01 05:52:28;;;;;;;19.60;14.10;;;;;;;10.29;55.76;99334.29;118139;1180;22731;-78
2021/11/01 05:55:03;;;;;;;16.40;13.80;;;;;;;10.29;55.78;99337.25;118217;1177;21878;-78
2021/11/01 05:57:46;;;;;;;21.20;15.70;;;;;;;10.29;55.74;99342.38;118282;1174;21871;-78
2021/11/01 06:01:09;;;;;;;20.00;14.90;;;;;;;10.30;55.74;99338.15;118281;1178;23512;-78
2021/11/01 06:03:16;;;;;;;23.20;15.30;;;;;;;10.27;55.77;99332.97;118598;1174;21906;-78
2021/11/01 06:13:57;;;;;;;22.00;16.50;;;;;;;10.21;56.00;99330.21;119011;1162;21855;-79
2021/11/01 06:16:25;;;;;;;19.20;16.20;;;;;;;10.22;56.04;99328.18;118862;1174;21909;-78
2021/11/01 06:18:54;;;;;;;15.90;14.30;;;;;;;10.23;56.08;99329.05;118738;1174;21859;-77
2021/11/01 06:21:27;;;;;;;17.90;14.70;;;;;;;10.25;56.01;99328.51;118908;1171;21875;-78
2021/11/01 06:23:58;;;;;;;23.90;14.80;;;;;;;10.27;55.95;99326.63;118923;1173;22887;-79
2021/11/01 06:26:29;;;;;;;23.70;16.70;;;;;;;10.28;55.96;99327.73;119009;1173;23306;-79
2021/11/01 06:29:03;;;;;;;23.20;16.20;;;;;;;10.28;55.99;99323.84;119084;1171;21870;-79
2021/11/01 06:31:36;;;;;;;16.20;14.40;;;;;;;10.31;56.00;99330.08;119165;1170;21911;-76
2021/11/01 06:39:51;;;;;;;18.70;15.40;;;;;;;10.38;55.86;99335.62;118981;1172;24083;-78
2021/11/01 06:42:35;;;;;;;15.10;13.40;;;;;;;10.42;55.79;99349.45;118941;1172;22604;-78
2021/11/01 06:45:45;;;;;;;17.10;14.30;;;;;;;10.45;55.77;99347.64;119015;1171;22884;-78
2021/11/01 06:58:47;;;;;;;20.60;17.10;;;;;;;10.65;55.35;99349.75;119135;1170;21889;-77
2021/11/01 07:18:02;;;;;;;18.90;15.60;;;;;;;10.92;54.83;99358.14;117573;1184;23431;-77
2021/11/01 08:38:21;;;;;;;20.70;18.50;;;;;;;13.74;49.48;99351.36;119823;1171;23037;-77
2021/11/01 09:02:40;;;;;;;19.40;15.80;;;;;;;14.22;48.30;99343.95;119738;1170;21863;-77
2021/11/01 09:26:46;;;;;;;17.30;15.30;;;;;;;14.60;47.41;99328.98;119304;1174;21863;-77
2021/11/01 09:29:32;;;;;;;19.10;16.40;;;;;;;14.70;47.40;99330.89;119296;1174;22301;-75
2021/11/01 09:43:15;;;;;;;17.10;15.10;;;;;;;15.30;46.63;99342.23;118857;1174;23437;-78
2021/11/01 09:45:46;;;;;;;20.00;16.90;;;;;;;15.47;46.38;99345.09;118847;1174;23882;-78
2021/11/01 09:48:17;;;;;;;17.20;15.50;;;;;;;15.63;45.67;99346.13;119090;1174;22709;-77
2021/11/01 09:50:45;;;;;;;17.40;15.60;;;;;;;15.79;45.69;99341.18;118961;1174;23585;-79
2021/11/01 09:53:20;;;;;;;15.60;14.00;;;;;;;16.00;45.66;99338.30;119082;1170;22629;-76
2021/11/01 10:01:15;;;;;;;15.90;14.40;;;;;;;16.52;44.12;99337.31;119209;1170;22471;-77
2021/11/01 10:03:51;;;;;;;16.50;14.70;;;;;;;16.71;43.78;99337.23;119247;1170;21893;-76
2021/11/01 10:06:22;;;;;;;16.20;14.40;;;;;;;16.92;43.68;99336.92;119268;1166;21869;-76
2021/11/01 10:08:54;;;;;;;14.80;12.90;;;;;;;17.10;42.89;99336.08;119307;1163;21874;-77
2021/11/01 10:11:30;;;;;;;15.90;14.30;;;;;;;17.23;42.43;99338.85;119035;1174;23544;-76
2021/11/01 10:14:02;;;;;;;14.90;13.20;;;;;;;17.38;42.24;99342.30;119075;1174;21844;-76
2021/11/01 10:19:32;;;;;;;17.40;15.50;;;;;;;17.83;41.96;99340.23;118452;1176;22634;-77
2021/11/01 10:22:06;;;;;;;22.70;15.00;;;;;;;18.13;41.74;99342.33;118469;1176;23582;-77
2021/11/01 10:24:41;;;;;;;14.30;12.80;;;;;;;18.49;41.22;99337.82;118727;1176;21902;-78
2021/11/01 10:27:34;;;;;;;14.00;12.30;;;;;;;18.64;39.60;99338.25;118844;1176;22939;-77
2021/11/01 10:30:14;;;;;;;;;;;;;;;18.74;39.89;99336.07;118583;1174;23501;-78
2021/11/01 10:32:49;;;;;;;15.80;14.20;;;;;;;18.80;39.26;99334.66;118691;1176;21860;-78
2021/11/01 10:35:28;;;;;;;17.60;15.00;;;;;;;19.06;39.59;99327.72;118708;1172;24212;-78
2021/11/01 10:38:25;;;;;;;18.90;16.50;;;;;;;19.27;38.22;99324.50;119444;1171;23532;-80
2021/11/01 10:43:46;;;;;;;18.10;14.40;;;;;;;19.46;38.66;99319.22;118858;1173;21875;-78
2021/11/01 11:12:46;;;;;;;13.60;12.20;;;;;;;18.87;37.17;99315.92;118759;1176;22223;-78
2021/11/01 11:15:25;;;;;;;15.00;13.30;;;;;;;18.63;37.13;99319.48;119326;1176;21877;-80
2021/11/01 11:49:15;;;;;;;13.30;11.90;;;;;;;17.01;40.89;99303.55;119594;1174;21855;-78
2021/11/01 11:52:03;;;;;;;15.90;12.20;;;;;;;17.01;40.99;99301.79;119737;1174;21865;-79
2021/11/01 11:54:45;;;;;;;16.60;13.00;;;;;;;16.98;40.94;99305.04;119290;1174;21880;-79
2021/11/01 11:57:29;;;;;;;12.80;11.50;;;;;;;16.99;41.19;99305.69;119563;1173;21867;-79
2021/11/01 12:00:00;;;;;;;13.00;11.70;;;;;;;16.99;41.11;99310.07;119034;1175;21880;-78
2021/11/01 12:02:39;;;;;;;14.50;12.00;;;;;;;16.97;41.21;99305.96;119400;1175;21874;-79
2021/11/01 12:05:40;;;;;;;13.20;11.80;;;;;;;16.97;41.40;99304.21;119312;1175;21874;-78
2021/11/01 12:08:29;;;;;;;12.90;11.80;;;;;;;16.97;41.66;99308.55;119590;1175;22173;-78
2021/11/01 12:19:17;;;;;;;14.10;12.60;;;;;;;17.03;41.65;99296.81;118788;1175;21871;-76
2021/11/01 12:21:50;;;;;;;12.70;11.40;;;;;;;17.02;41.40;99299.13;119329;1171;21893;-76
2021/11/01 12:24:22;;;;;;;14.60;11.60;;;;;;;17.01;41.42;99298.53;119215;1175;21905;-76
2021/11/01 12:27:04;;;;;;;;;;;;;;;16.99;41.55;99294.66;119414;1175;21892;-77
2021/11/01 12:29:41;;;;;;;12.00;10.80;;;;;;;16.88;41.51;99290.42;118974;1178;22098;-77
2021/11/01 12:32:13;;;;;;;11.60;10.50;;;;;;;16.84;41.75;99291.10;118408;1178;23597;-77
2021/11/01 12:35:00;;;;;;;15.30;13.70;;;;;;;16.86;41.85;99289.06;118337;1178;21864;-77
2021/11/01 12:37:31;;;;;;;18.10;16.30;;;;;;;16.87;41.80;99291.05;118705;1174;21867;-78
2021/11/01 12:42:55;;;;;;;15.80;14.40;;;;;;;16.88;41.94;99292.55;119087;1174;21881;-77
2021/11/01 12:57:04;;;;;;;12.20;10.60;;;;;;;16.86;42.21;99292.99;118636;1177;22802;-78
2021/11/01 12:59:43;;;;;;;15.30;13.70;;;;;;;16.87;42.28;99292.96;118475;1174;21850;-77
2021/11/01 13:02:33;;;;;;;21.60;14.30;;;;;;;16.88;42.28;99293.73;118657;1177;22893;-76
2021/11/01 13:05:09;;;;;;;13.60;12.20;;;;;;;16.87;42.11;99291.84;119031;1177;21877;-77
2021/11/01 13:19:14;;;;;;;17.40;14.80;;;;;;;16.83;42.51;99289.89;119560;1171;22887;-76
2021/11/01 13:24:36;;;;;;;15.80;14.20;;;;;;;16.92;42.93;99287.05;119040;1174;21867;-77
2021/11/01 13:27:40;;;;;;;15.20;13.50;;;;;;;16.93;42.69;99284.28;119507;1174;21916;-78
2021/11/01 13:39:05;;;;;;;18.90;15.80;;;;;;;16.96;42.70;99290.27;119658;1174;21873;-78
2021/11/01 13:41:44;;;;;;;20.10;18.10;;;;;;;16.97;42.62;99288.63;119317;1176;22379;-78
2021/11/01 13:44:27;;;;;;;21.10;18.50;;;;;;;16.97;42.45;99290.72;118929;1174;22642;-78
2021/11/01 13:47:05;;;;;;;14.20;12.80;;;;;;;16.97;42.43;99284.86;119205;1175;23698;-78
2021/11/01 13:49:37;;;;;;;15.40;13.80;;;;;;;16.97;42.50;99282.33;119106;1174;22841;-78
2021/11/01 13:55:21;;;;;;;14.80;11.90;;;;;;;16.97;42.45;99278.17;119198;1176;22345;-77
2021/11/01 13:58:17;;;;;;;12.80;11.50;;;;;;;16.96;42.41;99278.64;120048;1176;22049;-78
2021/11/01 14:28:02;;;;;;;26.00;22.40;;;;;;;16.61;43.01;99275.05;119428;1170;23979;-78
2021/11/01 14:33:47;;;;;;;26.30;21.00;;;;;;;16.54;43.25;99268.97;119049;1170;21887;-78
2021/11/01 15:11:51;;;;;;;31.50;26.40;;;;;;;15.81;45.22;99257.73;118890;1175;21861;-77
2021/11/01 15:17:04;;;;;;;20.10;18.00;;;;;;;15.65;45.64;99262.33;118907;1175;23655;-78
2021/11/01 15:42:25;;;;;;;33.20;26.00;;;;;;;14.79;48.05;99270.27;119272;1175;21866;-79
2021/11/01 16:18:17;;;;;;;64.60;55.70;;;;;;;13.54;51.76;99276.96;118903;1175;21868;-77
2021/11/01 16:20:47;;;;;;;87.70;62.30;;;;;;;13.47;51.94;99276.30;118646;1169;21859;-77
2021/11/01 16:23:34;;;;;;;91.90;65.60;;;;;;;13.41;52.07;99278.98;118844;1173;21970;-76
2021/11/01 16:26:16;;;;;;;80.30;60.00;;;;;;;13.33;52.38;99276.55;118544;1175;22828;-76
2021/11/01 16:28:46;;;;;;;61.30;49.30;;;;;;;13.27;52.70;99270.25;118843;1173;21872;-75
2021/11/01 16:32:02;;;;;;;60.30;49.20;;;;;;;13.24;52.81;99270.90;118514;1176;22645;-80
2021/11/01 16:34:29;;;;;;;;;;;;;;;13.18;52.92;99270.80;118651;1175;23426;-76
2021/11/01 16:37:13;;;;;;;62.20;49.50;;;;;;;13.04;53.45;99267.88;118453;1169;23469;-77
2021/11/01 16:39:47;;;;;;;64.30;51.40;;;;;;;12.99;53.59;99265.04;118394;1177;21864;-77
2021/11/01 16:42:21;;;;;;;78.70;62.90;;;;;;;12.97;53.60;99261.86;118450;1178;21894;-77
2021/11/01 16:44:49;;;;;;;81.00;66.70;;;;;;;12.93;53.45;99261.30;118528;1174;23448;-76
2021/11/01 16:47:18;;;;;;;78.00;61.90;;;;;;;12.88;53.73;99268.08;118375;1174;21872;-75
2021/11/01 16:49:49;;;;;;;83.30;63.90;;;;;;;12.85;53.88;99267.48;118656;1175;22749;-77
2021/11/01 16:52:20;;;;;;;93.60;69.80;;;;;;;12.83;54.05;99268.56;118810;1172;23419;-78
2021/11/01 16:54:51;;;;;;;94.60;70.80;;;;;;;12.79;54.07;99269.23;118511;1175;21866;-76
2021/11/01 16:57:40;;;;;;;106.40;75.60;;;;;;;12.74;54.28;99264.96;119041;1174;21903;-77
2021/11/01 18:52:12;;;;;;;88.50;65.70;;;;;;;11.21;58.91;99238.85;119905;1171;21856;-76
2021/11/01 18:54:49;;;;;;;84.30;64.40;;;;;;;11.15;59.01;99237.63;119650;1171;21832;-77
2021/11/01 18:57:20;;;;;;;93.90;69.50;;;;;;;11.13;59.25;99237.69;119261;1174;23681;-77
2021/11/01 18:59:52;;;;;;;93.20;67.40;;;;;;;11.13;59.44;99236.39;119152;1174;21910;-76
2021/11/01 19:02:42;;;;;;;84.90;60.80;;;;;;;11.11;59.42;99236.58;119328;1174;21871;-77
2021/11/01 19:05:39;;;;;;;83.10;62.40;;;;;;;11.09;59.48;99234.59;118922;1173;21923;-77
2021/11/01 19:08:25;;;;;;;81.20;60.50;;;;;;;11.06;59.68;99232.83;118909;1173;23528;-77
2021/11/01 19:14:15;;;;;;;58.80;46.20;;;;;;;11.05;59.85;99228.52;119235;1170;21854;-77
2021/11/01 21:27:03;;;;;;;53.70;44.80;;;;;;;10.06;63.29;99242.45;119391;1170;22454;-78
2021/11/01 21:29:35;;;;;;;47.50;40.70;;;;;;;10.06;63.31;99238.50;119770;1170;22906;-77
2021/11/01 21:32:05;;;;;;;63.20;50.30;;;;;;;10.05;63.53;99237.42;119495;1170;21859;-77
2021/11/01 21:34:39;;;;;;;63.20;50.40;;;;;;;10.05;63.64;99233.37;119488;1170;21960;-78
2021/11/01 21:37:09;;;;;;;61.30;48.90;;;;;;;10.05;63.58;99237.20;119480;1168;21912;-77
2021/11/01 21:39:38;;;;;;;59.00;49.90;;;;;;;10.05;63.58;99235.58;120148;1170;23536;-77
2021/11/01 21:42:06;;;;;;;67.20;52.30;;;;;;;10.03;63.51;99236.73;119506;1174;21862;-78
2021/11/01 21:44:43;;;;;;;57.20;46.60;;;;;;;10.00;63.63;99236.73;119040;1174;21957;-78
2021/11/01 21:47:11;;;;;;;59.20;47.70;;;;;;;9.99;63.73;99233.57;119060;1174;21878;-78
2021/11/01 21:49:39;;;;;;;56.70;47.40;;;;;;;9.98;63.91;99231.66;118591;1177;22891;-78
2021/11/01 21:52:09;;;;;;;87.40;63.10;;;;;;;9.98;63.89;99228.86;118078;1181;21889;-78
2021/11/01 21:54:43;;;;;;;78.50;57.60;;;;;;;9.98;63.96;99230.35;117786;1183;23714;-78
2021/11/01 22:16:39;;;;;;;65.50;49.90;;;;;;;9.72;63.86;99218.05;119063;1173;21878;-78
2021/11/01 22:39:35;;;;;;;55.80;48.20;;;;;;;9.24;65.03;99189.34;119131;1176;21879;-77
2021/11/01 22:45:09;;;;;;;66.40;53.70;;;;;;;8.93;65.12;99174.05;119353;1173;22014;-77
2021/11/01 22:57:55;;;;;;;61.80;53.30;;;;;;;8.63;66.92;99171.56;119281;1174;21880;-78
2021/11/01 23:00:57;;;;;;;57.90;51.70;;;;;;;8.60;67.04;99175.66;118411;1177;22938;-78
2021/11/01 23:06:49;;;;;;;57.10;51.00;;;;;;;8.51;67.45;99163.67;118875;1176;21824;-77
2021/11/01 23:31:44;;;;;;;55.40;47.00;;;;;;;8.94;68.00;99136.91;118710;1176;21873;-77
2021/11/01 23:34:16;;;;;;;66.70;53.40;;;;;;;8.98;67.90;99140.72;118870;1174;23448;-78
2021/11/01 23:36:45;;;;;;;65.00;53.50;;;;;;;9.02;67.98;99139.55;118918;1174;22994;-77
2021/11/01 23:39:15;;;;;;;55.10;47.90;;;;;;;9.05;67.96;99139.45;118910;1171;21931;-77
2021/11/01 23:41:48;;;;;;;57.60;49.90;;;;;;;9.07;67.73;99136.23;118545;1174;22066;-77
2021/11/01 23:44:18;;;;;;;65.90;54.30;;;;;;;9.09;67.68;99135.80;118705;1176;21863;-77
2021/11/01 23:46:48;;;;;;;67.30;54.50;;;;;;;9.11;67.78;99138.02;118283;1180;21870;-77
2021/11/01 23:49:17;;;;;;;57.70;51.40;;;;;;;9.14;67.85;99138.90;118461;1177;22931;-77
2021/11/01 23:52:01;;;;;;;55.90;48.10;;;;;;;9.15;67.87;99136.55;118395;1178;21925;-77
2021/11/01 23:54:42;;;;;;;55.70;49.80;;;;;;;9.15;67.86;99138.33;118367;1178;21871;-77
2021/11/01 23:57:14;;;;;;;60.50;51.50;;;;;;;9.16;68.06;99140.29;118337;1175;21987;-77
2021/11/01 23:59:44;;;;;;;57.60;51.20;;;;;;;9.21;68.26;99141.64;118499;1176;23449;-77
